<?xml version="1.0" encoding="UTF-8" standalone="yes"?>
<gpx xmlns="http://www.topografix.com/GPX/1/1" xmlns:gpxx="http://www.garmin.com/xmlschemas/GpxExtensions/v3" xmlns:rcxx="http://www.routeconverter.de/xmlschemas/RouteCatalogExtensions/1.0" xmlns:nmea="http://trekbuddy.net/2009/01/gpx/nmea" creator="Generated by Christian Pesch's RouteConverter. See http://www.routeconverter.de" version="1.1">
    <metadata>
        <link href="http://www.garmin.com">
            <text>Garmin International</text>
        </link>
        <time>2011-02-05T17:04:00Z</time>
        <bounds maxlon="11.19645900093019" maxlat="49.438511012122035" minlon="11.134505001828074" minlat="49.418426966294646"/>
    </metadata>
    <trk>
        <name>Aktueller Track: 05 FEB 2011 14:45 (rev)</name>
        <extensions>
            <gpxx:TrackExtension>
                <gpxx:DisplayColor>Black</gpxx:DisplayColor>
            </gpxx:TrackExtension>
        </extensions>
        <trkseg>
            <trkpt lon="11.134505001828074" lat="49.43837396800518">
                <ele>308.72</ele>
                <time>2011-02-05T14:57:58.000Z</time>
                <name>Position 1</name>
            </trkpt>
            <trkpt lon="11.134914038702846" lat="49.438445968553424">
                <ele>308.24</ele>
                <time>2011-02-05T14:57:48.000Z</time>
                <name>Position 2</name>
            </trkpt>
            <trkpt lon="11.135357022285461" lat="49.43849600851536">
                <ele>308.24</ele>
                <time>2011-02-05T14:57:38.000Z</time>
                <name>Position 3</name>
            </trkpt>
            <trkpt lon="11.135431034490466" lat="49.43849600851536">
                <ele>308.72</ele>
                <time>2011-02-05T14:57:28.000Z</time>
                <name>Position 4</name>
            </trkpt>
            <trkpt lon="11.135551985353231" lat="49.4384990260005">
                <ele>309.68</ele>
                <time>2011-02-05T14:57:18.000Z</time>
                <name>Position 5</name>
            </trkpt>
            <trkpt lon="11.135734962299466" lat="49.43850698880851">
                <ele>309.2</ele>
                <time>2011-02-05T14:57:08.000Z</time>
                <name>Position 6</name>
            </trkpt>
            <trkpt lon="11.135734962299466" lat="49.43850698880851">
                <ele>309.2</ele>
                <time>2011-02-05T14:56:58.000Z</time>
                <name>Position 7</name>
            </trkpt>
            <trkpt lon="11.135774021968246" lat="49.438511012122035">
                <ele>310.16</ele>
                <time>2011-02-05T14:56:48.000Z</time>
                <name>Position 8</name>
            </trkpt>
            <trkpt lon="11.13593797199428" lat="49.438469018787146">
                <ele>309.2</ele>
                <time>2011-02-05T14:56:38.000Z</time>
                <name>Position 9</name>
            </trkpt>
            <trkpt lon="11.136046014726162" lat="49.43836600519717">
                <ele>309.2</ele>
                <time>2011-02-05T14:56:29.000Z</time>
                <name>Position 10</name>
            </trkpt>
            <trkpt lon="11.136036040261388" lat="49.43824798800051">
                <ele>309.68</ele>
                <time>2011-02-05T14:56:19.000Z</time>
                <name>Position 11</name>
            </trkpt>
            <trkpt lon="11.136079961434007" lat="49.438210017979145">
                <ele>309.2</ele>
                <time>2011-02-05T14:56:09.000Z</time>
                <name>Position 12</name>
            </trkpt>
            <trkpt lon="11.136232009157538" lat="49.438189985230565">
                <ele>309.2</ele>
                <time>2011-02-05T14:55:59.000Z</time>
                <name>Position 13</name>
            </trkpt>
            <trkpt lon="11.13636502996087" lat="49.438128964975476">
                <ele>308.72</ele>
                <time>2011-02-05T14:55:49.000Z</time>
                <name>Position 14</name>
            </trkpt>
            <trkpt lon="11.136510958895087" lat="49.43805696442723">
                <ele>306.32</ele>
                <time>2011-02-05T14:55:40.000Z</time>
                <name>Position 15</name>
            </trkpt>
            <trkpt lon="11.136658983305097" lat="49.438018994405866">
                <ele>309.2</ele>
                <time>2011-02-05T14:55:30.000Z</time>
                <name>Position 16</name>
            </trkpt>
            <trkpt lon="11.136828968301415" lat="49.43796501494944">
                <ele>309.2</ele>
                <time>2011-02-05T14:55:20.000Z</time>
                <name>Position 17</name>
            </trkpt>
            <trkpt lon="11.136933993548155" lat="49.437824031338096">
                <ele>309.68</ele>
                <time>2011-02-05T14:55:10.000Z</time>
                <name>Position 18</name>
            </trkpt>
            <trkpt lon="11.13713700324297" lat="49.437697967514396">
                <ele>309.68</ele>
                <time>2011-02-05T14:55:01.000Z</time>
                <name>Position 19</name>
            </trkpt>
            <trkpt lon="11.13737597130239" lat="49.43770601414144">
                <ele>309.2</ele>
                <time>2011-02-05T14:54:51.000Z</time>
                <name>Position 20</name>
            </trkpt>
            <trkpt lon="11.137541010975838" lat="49.43772504106164">
                <ele>310.16</ele>
                <time>2011-02-05T14:54:41.000Z</time>
                <name>Position 21</name>
            </trkpt>
            <trkpt lon="11.13771602511406" lat="49.437695033848286">
                <ele>310.16</ele>
                <time>2011-02-05T14:54:31.000Z</time>
                <name>Position 22</name>
            </trkpt>
            <trkpt lon="11.137839993461967" lat="49.43762596696615">
                <ele>309.68</ele>
                <time>2011-02-05T14:54:21.000Z</time>
                <name>Position 23</name>
            </trkpt>
            <trkpt lon="11.138011990115047" lat="49.43759202025831">
                <ele>309.68</ele>
                <time>2011-02-05T14:54:11.000Z</time>
                <name>Position 24</name>
            </trkpt>
            <trkpt lon="11.138123972341418" lat="49.43757601082325">
                <ele>309.68</ele>
                <time>2011-02-05T14:54:01.000Z</time>
                <name>Position 25</name>
            </trkpt>
            <trkpt lon="11.138327987864614" lat="49.43756100721657">
                <ele>309.68</ele>
                <time>2011-02-05T14:53:51.000Z</time>
                <name>Position 26</name>
            </trkpt>
            <trkpt lon="11.138451034203172" lat="49.43751901388168">
                <ele>310.64</ele>
                <time>2011-02-05T14:53:41.000Z</time>
                <name>Position 27</name>
            </trkpt>
            <trkpt lon="11.138585982844234" lat="49.437477020546794">
                <ele>310.16</ele>
                <time>2011-02-05T14:53:31.000Z</time>
                <name>Position 28</name>
            </trkpt>
            <trkpt lon="11.138805001974106" lat="49.437438966706395">
                <ele>310.16</ele>
                <time>2011-02-05T14:53:21.000Z</time>
                <name>Position 29</name>
            </trkpt>
            <trkpt lon="11.138990996405482" lat="49.43742002360523">
                <ele>310.64</ele>
                <time>2011-02-05T14:53:11.000Z</time>
                <name>Position 30</name>
            </trkpt>
            <trkpt lon="11.139189982786775" lat="49.43737803027034">
                <ele>310.16</ele>
                <time>2011-02-05T14:53:01.000Z</time>
                <name>Position 31</name>
            </trkpt>
            <trkpt lon="11.139326021075249" lat="49.43729798309505">
                <ele>310.16</ele>
                <time>2011-02-05T14:52:51.000Z</time>
                <name>Position 32</name>
            </trkpt>
            <trkpt lon="11.13948100246489" lat="49.43722900003195">
                <ele>310.64</ele>
                <time>2011-02-05T14:52:41.000Z</time>
                <name>Position 33</name>
            </trkpt>
            <trkpt lon="11.139662973582745" lat="49.43719496950507">
                <ele>310.64</ele>
                <time>2011-02-05T14:52:31.000Z</time>
                <name>Position 34</name>
            </trkpt>
            <trkpt lon="11.139891967177391" lat="49.43719103001058">
                <ele>310.64</ele>
                <time>2011-02-05T14:52:21.000Z</time>
                <name>Position 35</name>
            </trkpt>
            <trkpt lon="11.140077961608768" lat="49.43716797977686">
                <ele>311.12</ele>
                <time>2011-02-05T14:52:11.000Z</time>
                <name>Position 36</name>
            </trkpt>
            <trkpt lon="11.140278037637472" lat="49.43719103001058">
                <ele>311.12</ele>
                <time>2011-02-05T14:52:01.000Z</time>
                <name>Position 37</name>
            </trkpt>
            <trkpt lon="11.14042497240007" lat="49.437156999483705">
                <ele>311.12</ele>
                <time>2011-02-05T14:51:51.000Z</time>
                <name>Position 38</name>
            </trkpt>
            <trkpt lon="11.140566039830446" lat="49.437137972563505">
                <ele>310.64</ele>
                <time>2011-02-05T14:51:41.000Z</time>
                <name>Position 39</name>
            </trkpt>
            <trkpt lon="11.140730995684862" lat="49.43711098283529">
                <ele>310.64</ele>
                <time>2011-02-05T14:51:31.000Z</time>
                <name>Position 40</name>
            </trkpt>
            <trkpt lon="11.140882037580013" lat="49.4370689895004">
                <ele>310.16</ele>
                <time>2011-02-05T14:51:21.000Z</time>
                <name>Position 41</name>
            </trkpt>
            <trkpt lon="11.141021009534597" lat="49.43697402253747">
                <ele>311.6</ele>
                <time>2011-02-05T14:51:11.000Z</time>
                <name>Position 42</name>
            </trkpt>
            <trkpt lon="11.141427028924227" lat="49.43678299896419">
                <ele>311.12</ele>
                <time>2011-02-05T14:51:01.000Z</time>
                <name>Position 43</name>
            </trkpt>
            <trkpt lon="11.141591984778643" lat="49.436748968437314">
                <ele>310.64</ele>
                <time>2011-02-05T14:50:51.000Z</time>
                <name>Position 44</name>
            </trkpt>
            <trkpt lon="11.141739003360271" lat="49.43667998537421">
                <ele>311.12</ele>
                <time>2011-02-05T14:50:42.000Z</time>
                <name>Position 45</name>
            </trkpt>
            <trkpt lon="11.141934972256422" lat="49.43667998537421">
                <ele>310.64</ele>
                <time>2011-02-05T14:50:32.000Z</time>
                <name>Position 46</name>
            </trkpt>
            <trkpt lon="11.142115015536547" lat="49.43664603866637">
                <ele>310.16</ele>
                <time>2011-02-05T14:50:22.000Z</time>
                <name>Position 47</name>
            </trkpt>
            <trkpt lon="11.142237978056073" lat="49.43651997484267">
                <ele>310.64</ele>
                <time>2011-02-05T14:50:13.000Z</time>
                <name>Position 48</name>
            </trkpt>
            <trkpt lon="11.142271002754569" lat="49.436408998444676">
                <ele>310.64</ele>
                <time>2011-02-05T14:50:03.000Z</time>
                <name>Position 49</name>
            </trkpt>
            <trkpt lon="11.1423160135746" lat="49.43631000816822">
                <ele>311.6</ele>
                <time>2011-02-05T14:49:54.000Z</time>
                <name>Position 50</name>
            </trkpt>
            <trkpt lon="11.14244601689279" lat="49.43620297126472">
                <ele>311.12</ele>
                <time>2011-02-05T14:49:44.000Z</time>
                <name>Position 51</name>
            </trkpt>
            <trkpt lon="11.142565039917827" lat="49.43611496128142">
                <ele>312.09</ele>
                <time>2011-02-05T14:49:34.000Z</time>
                <name>Position 52</name>
            </trkpt>
            <trkpt lon="11.142622036859393" lat="49.436000967398286">
                <ele>311.6</ele>
                <time>2011-02-05T14:49:25.000Z</time>
                <name>Position 53</name>
            </trkpt>
            <trkpt lon="11.142776012420654" lat="49.43591698072851">
                <ele>311.6</ele>
                <time>2011-02-05T14:49:15.000Z</time>
                <name>Position 54</name>
            </trkpt>
            <trkpt lon="11.1428979691118" lat="49.43585202097893">
                <ele>312.09</ele>
                <time>2011-02-05T14:49:05.000Z</time>
                <name>Position 55</name>
            </trkpt>
            <trkpt lon="11.143073989078403" lat="49.435740960761905">
                <ele>312.09</ele>
                <time>2011-02-05T14:48:55.000Z</time>
                <name>Position 56</name>
            </trkpt>
            <trkpt lon="11.143209021538496" lat="49.43564197048545">
                <ele>312.57</ele>
                <time>2011-02-05T14:48:45.000Z</time>
                <name>Position 57</name>
            </trkpt>
            <trkpt lon="11.143416976556182" lat="49.43561900407076">
                <ele>312.57</ele>
                <time>2011-02-05T14:48:35.000Z</time>
                <name>Position 58</name>
            </trkpt>
            <trkpt lon="11.143623003736138" lat="49.435608023777604">
                <ele>313.05</ele>
                <time>2011-02-05T14:48:25.000Z</time>
                <name>Position 59</name>
            </trkpt>
            <trkpt lon="11.143786031752825" lat="49.435608023777604">
                <ele>313.05</ele>
                <time>2011-02-05T14:48:15.000Z</time>
                <name>Position 60</name>
            </trkpt>
            <trkpt lon="11.143944030627608" lat="49.43559997715056">
                <ele>313.53</ele>
                <time>2011-02-05T14:48:05.000Z</time>
                <name>Position 61</name>
            </trkpt>
            <trkpt lon="11.1440550070256" lat="49.43556200712919">
                <ele>313.05</ele>
                <time>2011-02-05T14:47:55.000Z</time>
                <name>Position 62</name>
            </trkpt>
            <trkpt lon="11.144187022000551" lat="49.43545203655958">
                <ele>313.53</ele>
                <time>2011-02-05T14:47:45.000Z</time>
                <name>Position 63</name>
            </trkpt>
            <trkpt lon="11.144386008381844" lat="49.43537098355591">
                <ele>314.01</ele>
                <time>2011-02-05T14:47:35.000Z</time>
                <name>Position 64</name>
            </trkpt>
            <trkpt lon="11.144538978114724" lat="49.435307029634714">
                <ele>313.53</ele>
                <time>2011-02-05T14:47:25.000Z</time>
                <name>Position 65</name>
            </trkpt>
            <trkpt lon="11.144660012796521" lat="49.43522999994457">
                <ele>314.49</ele>
                <time>2011-02-05T14:47:15.000Z</time>
                <name>Position 66</name>
            </trkpt>
            <trkpt lon="11.144752968102694" lat="49.435093039646745">
                <ele>314.49</ele>
                <time>2011-02-05T14:47:05.000Z</time>
                <name>Position 67</name>
            </trkpt>
            <trkpt lon="11.144861010834575" lat="49.43494803272188">
                <ele>314.01</ele>
                <time>2011-02-05T14:46:55.000Z</time>
                <name>Position 68</name>
            </trkpt>
            <trkpt lon="11.145062008872628" lat="49.434794979169965">
                <ele>314.49</ele>
                <time>2011-02-05T14:46:45.000Z</time>
                <name>Position 69</name>
            </trkpt>
            <trkpt lon="11.145257977768779" lat="49.434731025248766">
                <ele>314.01</ele>
                <time>2011-02-05T14:46:35.000Z</time>
                <name>Position 70</name>
            </trkpt>
            <trkpt lon="11.145497029647231" lat="49.43471501581371">
                <ele>314.49</ele>
                <time>2011-02-05T14:46:25.000Z</time>
                <name>Position 71</name>
            </trkpt>
            <trkpt lon="11.145583027973771" lat="49.43466195836663">
                <ele>315.45</ele>
                <time>2011-02-05T14:46:15.000Z</time>
                <name>Position 72</name>
            </trkpt>
            <trkpt lon="11.14575301297009" lat="49.43462801165879">
                <ele>314.49</ele>
                <time>2011-02-05T14:46:05.000Z</time>
                <name>Position 73</name>
            </trkpt>
            <trkpt lon="11.145873963832855" lat="49.434601021930575">
                <ele>315.93</ele>
                <time>2011-02-05T14:45:55.000Z</time>
                <name>Position 74</name>
            </trkpt>
            <trkpt lon="11.145959040150046" lat="49.43452499806881">
                <ele>315.93</ele>
                <time>2011-02-05T14:45:45.000Z</time>
                <name>Position 75</name>
            </trkpt>
            <trkpt lon="11.14611703902483" lat="49.434432964771986">
                <ele>315.45</ele>
                <time>2011-02-05T14:45:35.000Z</time>
                <name>Position 76</name>
            </trkpt>
            <trkpt lon="11.146236984059215" lat="49.434387031942606">
                <ele>315.93</ele>
                <time>2011-02-05T14:45:25.000Z</time>
                <name>Position 77</name>
            </trkpt>
            <trkpt lon="11.146368999034166" lat="49.43430698476732">
                <ele>316.41</ele>
                <time>2011-02-05T14:45:15.000Z</time>
                <name>Position 78</name>
            </trkpt>
            <trkpt lon="11.146519035100937" lat="49.434212017804384">
                <ele>316.89</ele>
                <time>2011-02-05T14:45:05.000Z</time>
                <name>Position 79</name>
            </trkpt>
            <trkpt lon="11.146683990955353" lat="49.43418502807617">
                <ele>316.89</ele>
                <time>2011-02-05T14:44:55.000Z</time>
                <name>Position 80</name>
            </trkpt>
            <trkpt lon="11.146825980395079" lat="49.43419600836933">
                <ele>317.37</ele>
                <time>2011-02-05T14:44:45.000Z</time>
                <name>Position 81</name>
            </trkpt>
            <trkpt lon="11.146931005641818" lat="49.43412400782108">
                <ele>318.33</ele>
                <time>2011-02-05T14:44:35.000Z</time>
                <name>Position 82</name>
            </trkpt>
            <trkpt lon="11.14710995927453" lat="49.43407103419304">
                <ele>318.33</ele>
                <time>2011-02-05T14:44:25.000Z</time>
                <name>Position 83</name>
            </trkpt>
            <trkpt lon="11.14729997701943" lat="49.434062987565994">
                <ele>318.33</ele>
                <time>2011-02-05T14:44:15.000Z</time>
                <name>Position 84</name>
            </trkpt>
            <trkpt lon="11.14740801975131" lat="49.43404798395932">
                <ele>318.33</ele>
                <time>2011-02-05T14:44:05.000Z</time>
                <name>Position 85</name>
            </trkpt>
            <trkpt lon="11.147583033889532" lat="49.43400599062443">
                <ele>318.81</ele>
                <time>2011-02-05T14:43:55.000Z</time>
                <name>Position 86</name>
            </trkpt>
            <trkpt lon="11.147803980857134" lat="49.43396802060306">
                <ele>318.33</ele>
                <time>2011-02-05T14:43:45.000Z</time>
                <name>Position 87</name>
            </trkpt>
            <trkpt lon="11.148043032735586" lat="49.43396802060306">
                <ele>318.81</ele>
                <time>2011-02-05T14:43:35.000Z</time>
                <name>Position 88</name>
            </trkpt>
            <trkpt lon="11.148192984983325" lat="49.433979000896215">
                <ele>318.81</ele>
                <time>2011-02-05T14:43:25.000Z</time>
                <name>Position 89</name>
            </trkpt>
            <trkpt lon="11.14833497442305" lat="49.43398302420974">
                <ele>318.33</ele>
                <time>2011-02-05T14:43:15.000Z</time>
                <name>Position 90</name>
            </trkpt>
            <trkpt lon="11.148507976904511" lat="49.43394899368286">
                <ele>318.81</ele>
                <time>2011-02-05T14:43:05.000Z</time>
                <name>Position 91</name>
            </trkpt>
            <trkpt lon="11.14874099381268" lat="49.43388696759939">
                <ele>319.3</ele>
                <time>2011-02-05T14:42:55.000Z</time>
                <name>Position 92</name>
            </trkpt>
            <trkpt lon="11.148953977972269" lat="49.43379200063646">
                <ele>318.81</ele>
                <time>2011-02-05T14:42:45.000Z</time>
                <name>Position 93</name>
            </trkpt>
            <trkpt lon="11.149032013490796" lat="49.43364699371159">
                <ele>319.3</ele>
                <time>2011-02-05T14:42:35.000Z</time>
                <name>Position 94</name>
            </trkpt>
            <trkpt lon="11.149107031524181" lat="49.43346804007888">
                <ele>319.3</ele>
                <time>2011-02-05T14:42:25.000Z</time>
                <name>Position 95</name>
            </trkpt>
            <trkpt lon="11.149261007085443" lat="49.43323502317071">
                <ele>319.3</ele>
                <time>2011-02-05T14:42:15.000Z</time>
                <name>Position 96</name>
            </trkpt>
            <trkpt lon="11.149353962391615" lat="49.43319302983582">
                <ele>319.78</ele>
                <time>2011-02-05T14:42:05.000Z</time>
                <name>Position 97</name>
            </trkpt>
            <trkpt lon="11.14942504093051" lat="49.43314701318741">
                <ele>319.78</ele>
                <time>2011-02-05T14:41:55.000Z</time>
                <name>Position 98</name>
            </trkpt>
            <trkpt lon="11.149543980136514" lat="49.43308599293232">
                <ele>320.26</ele>
                <time>2011-02-05T14:41:45.000Z</time>
                <name>Position 99</name>
            </trkpt>
            <trkpt lon="11.149646993726492" lat="49.43304802291095">
                <ele>319.78</ele>
                <time>2011-02-05T14:41:35.000Z</time>
                <name>Position 100</name>
            </trkpt>
            <trkpt lon="11.149757970124483" lat="49.432991025969386">
                <ele>319.3</ele>
                <time>2011-02-05T14:41:25.000Z</time>
                <name>Position 101</name>
            </trkpt>
            <trkpt lon="11.149956034496427" lat="49.43293796852231">
                <ele>320.26</ele>
                <time>2011-02-05T14:41:15.000Z</time>
                <name>Position 102</name>
            </trkpt>
            <trkpt lon="11.150104980915785" lat="49.43287703208625">
                <ele>319.3</ele>
                <time>2011-02-05T14:41:05.000Z</time>
                <name>Position 103</name>
            </trkpt>
            <trkpt lon="11.150186033919454" lat="49.43284601904452">
                <ele>319.3</ele>
                <time>2011-02-05T14:40:55.000Z</time>
                <name>Position 104</name>
            </trkpt>
            <trkpt lon="11.150337997823954" lat="49.43276597186923">
                <ele>320.74</ele>
                <time>2011-02-05T14:40:45.000Z</time>
                <name>Position 105</name>
            </trkpt>
            <trkpt lon="11.150491973385215" lat="49.432690031826496">
                <ele>320.26</ele>
                <time>2011-02-05T14:40:35.000Z</time>
                <name>Position 106</name>
            </trkpt>
            <trkpt lon="11.150616025552154" lat="49.43261300213635">
                <ele>320.26</ele>
                <time>2011-02-05T14:40:25.000Z</time>
                <name>Position 107</name>
            </trkpt>
            <trkpt lon="11.150725996121764" lat="49.432541001588106">
                <ele>319.3</ele>
                <time>2011-02-05T14:40:15.000Z</time>
                <name>Position 108</name>
            </trkpt>
            <trkpt lon="11.150793973356485" lat="49.43246497772634">
                <ele>319.78</ele>
                <time>2011-02-05T14:40:05.000Z</time>
                <name>Position 109</name>
            </trkpt>
            <trkpt lon="11.150895981118083" lat="49.43237302824855">
                <ele>320.26</ele>
                <time>2011-02-05T14:39:55.000Z</time>
                <name>Position 110</name>
            </trkpt>
            <trkpt lon="11.151007041335106" lat="49.43227403797209">
                <ele>320.26</ele>
                <time>2011-02-05T14:39:45.000Z</time>
                <name>Position 111</name>
            </trkpt>
            <trkpt lon="11.151164034381509" lat="49.43220103159547">
                <ele>320.26</ele>
                <time>2011-02-05T14:39:35.000Z</time>
                <name>Position 112</name>
            </trkpt>
            <trkpt lon="11.151320021599531" lat="49.432129031047225">
                <ele>320.74</ele>
                <time>2011-02-05T14:39:25.000Z</time>
                <name>Position 113</name>
            </trkpt>
            <trkpt lon="11.15146704018116" lat="49.43201101385057">
                <ele>320.74</ele>
                <time>2011-02-05T14:39:15.000Z</time>
                <name>Position 114</name>
            </trkpt>
            <trkpt lon="11.151713971048594" lat="49.43194597028196">
                <ele>320.74</ele>
                <time>2011-02-05T14:39:05.000Z</time>
                <name>Position 115</name>
            </trkpt>
            <trkpt lon="11.15194103680551" lat="49.43194203078747">
                <ele>320.74</ele>
                <time>2011-02-05T14:38:55.000Z</time>
                <name>Position 116</name>
            </trkpt>
            <trkpt lon="11.1521540209651" lat="49.43196499720216">
                <ele>321.22</ele>
                <time>2011-02-05T14:38:45.000Z</time>
                <name>Position 117</name>
            </trkpt>
            <trkpt lon="11.152232978492975" lat="49.43198402412236">
                <ele>320.74</ele>
                <time>2011-02-05T14:38:35.000Z</time>
                <name>Position 118</name>
            </trkpt>
            <trkpt lon="11.152454009279609" lat="49.43196499720216">
                <ele>320.74</ele>
                <time>2011-02-05T14:38:25.000Z</time>
                <name>Position 119</name>
            </trkpt>
            <trkpt lon="11.152535984292626" lat="49.43192300386727">
                <ele>321.22</ele>
                <time>2011-02-05T14:38:15.000Z</time>
                <name>Position 120</name>
            </trkpt>
            <trkpt lon="11.152673028409481" lat="49.431849997490644">
                <ele>321.22</ele>
                <time>2011-02-05T14:38:05.000Z</time>
                <name>Position 121</name>
            </trkpt>
            <trkpt lon="11.152775958180428" lat="49.43177397362888">
                <ele>321.7</ele>
                <time>2011-02-05T14:37:55.000Z</time>
                <name>Position 122</name>
            </trkpt>
            <trkpt lon="11.152959018945694" lat="49.4317970238626">
                <ele>321.22</ele>
                <time>2011-02-05T14:37:45.000Z</time>
                <name>Position 123</name>
            </trkpt>
            <trkpt lon="11.153168985620141" lat="49.43184304051101">
                <ele>321.22</ele>
                <time>2011-02-05T14:37:35.000Z</time>
                <name>Position 124</name>
            </trkpt>
            <trkpt lon="11.153333019465208" lat="49.431849997490644">
                <ele>322.18</ele>
                <time>2011-02-05T14:37:25.000Z</time>
                <name>Position 125</name>
            </trkpt>
            <trkpt lon="11.153447013348341" lat="49.43183901719749">
                <ele>323.14</ele>
                <time>2011-02-05T14:37:15.000Z</time>
                <name>Position 126</name>
            </trkpt>
            <trkpt lon="11.153620015829802" lat="49.43180096335709">
                <ele>320.26</ele>
                <time>2011-02-05T14:37:05.000Z</time>
                <name>Position 127</name>
            </trkpt>
            <trkpt lon="11.153754964470863" lat="49.431762993335724">
                <ele>321.7</ele>
                <time>2011-02-05T14:36:55.000Z</time>
                <name>Position 128</name>
            </trkpt>
            <trkpt lon="11.153912963345647" lat="49.431721000000834">
                <ele>322.66</ele>
                <time>2011-02-05T14:36:45.000Z</time>
                <name>Position 129</name>
            </trkpt>
            <trkpt lon="11.154058976098895" lat="49.43168302997947">
                <ele>322.66</ele>
                <time>2011-02-05T14:36:35.000Z</time>
                <name>Position 130</name>
            </trkpt>
            <trkpt lon="11.154300961643457" lat="49.43164103664458">
                <ele>322.18</ele>
                <time>2011-02-05T14:36:25.000Z</time>
                <name>Position 131</name>
            </trkpt>
            <trkpt lon="11.154490979388356" lat="49.431595019996166">
                <ele>322.18</ele>
                <time>2011-02-05T14:36:15.000Z</time>
                <name>Position 132</name>
            </trkpt>
            <trkpt lon="11.154631040990353" lat="49.43156098946929">
                <ele>322.66</ele>
                <time>2011-02-05T14:36:05.000Z</time>
                <name>Position 133</name>
            </trkpt>
            <trkpt lon="11.154795996844769" lat="49.43149602971971">
                <ele>323.14</ele>
                <time>2011-02-05T14:35:55.000Z</time>
                <name>Position 134</name>
            </trkpt>
            <trkpt lon="11.154829021543264" lat="49.431487983092666">
                <ele>323.14</ele>
                <time>2011-02-05T14:35:45.000Z</time>
                <name>Position 135</name>
            </trkpt>
            <trkpt lon="11.154926000162959" lat="49.431445989757776">
                <ele>323.14</ele>
                <time>2011-02-05T14:35:35.000Z</time>
                <name>Position 136</name>
            </trkpt>
            <trkpt lon="11.155113000422716" lat="49.43135496228933">
                <ele>323.14</ele>
                <time>2011-02-05T14:35:25.000Z</time>
                <name>Position 137</name>
            </trkpt>
            <trkpt lon="11.15514300763607" lat="49.43132403306663">
                <ele>323.14</ele>
                <time>2011-02-05T14:35:15.000Z</time>
                <name>Position 138</name>
            </trkpt>
            <trkpt lon="11.155255995690823" lat="49.431248009204865">
                <ele>322.66</ele>
                <time>2011-02-05T14:35:05.000Z</time>
                <name>Position 139</name>
            </trkpt>
            <trkpt lon="11.155374012887478" lat="49.43117902614176">
                <ele>322.66</ele>
                <time>2011-02-05T14:34:55.000Z</time>
                <name>Position 140</name>
            </trkpt>
            <trkpt lon="11.155476020649076" lat="49.43110300228">
                <ele>322.18</ele>
                <time>2011-02-05T14:34:45.000Z</time>
                <name>Position 141</name>
            </trkpt>
            <trkpt lon="11.155609041452408" lat="49.43104600533843">
                <ele>323.14</ele>
                <time>2011-02-05T14:34:35.000Z</time>
                <name>Position 142</name>
            </trkpt>
            <trkpt lon="11.15578698925674" lat="49.43098096176982">
                <ele>323.14</ele>
                <time>2011-02-05T14:34:25.000Z</time>
                <name>Position 143</name>
            </trkpt>
            <trkpt lon="11.155963009223342" lat="49.43092295899987">
                <ele>323.62</ele>
                <time>2011-02-05T14:34:15.000Z</time>
                <name>Position 144</name>
            </trkpt>
            <trkpt lon="11.15615101531148" lat="49.43087400868535">
                <ele>323.14</ele>
                <time>2011-02-05T14:34:05.000Z</time>
                <name>Position 145</name>
            </trkpt>
            <trkpt lon="11.156342960894108" lat="49.43079396151006">
                <ele>323.62</ele>
                <time>2011-02-05T14:33:55.000Z</time>
                <name>Position 146</name>
            </trkpt>
            <trkpt lon="11.156525015830994" lat="49.430733025074005">
                <ele>324.58</ele>
                <time>2011-02-05T14:33:45.000Z</time>
                <name>Position 147</name>
            </trkpt>
            <trkpt lon="11.156788961961865" lat="49.43069798871875">
                <ele>323.62</ele>
                <time>2011-02-05T14:33:35.000Z</time>
                <name>Position 148</name>
            </trkpt>
            <trkpt lon="11.157021978870034" lat="49.430667981505394">
                <ele>323.62</ele>
                <time>2011-02-05T14:33:25.000Z</time>
                <name>Position 149</name>
            </trkpt>
            <trkpt lon="11.157122980803251" lat="49.43065297789872">
                <ele>323.62</ele>
                <time>2011-02-05T14:33:15.000Z</time>
                <name>Position 150</name>
            </trkpt>
            <trkpt lon="11.157264970242977" lat="49.430606961250305">
                <ele>324.1</ele>
                <time>2011-02-05T14:33:05.000Z</time>
                <name>Position 151</name>
            </trkpt>
            <trkpt lon="11.15741802379489" lat="49.430564967915416">
                <ele>324.1</ele>
                <time>2011-02-05T14:32:55.000Z</time>
                <name>Position 152</name>
            </trkpt>
            <trkpt lon="11.157617010176182" lat="49.43054996430874">
                <ele>323.62</ele>
                <time>2011-02-05T14:32:45.000Z</time>
                <name>Position 153</name>
            </trkpt>
            <trkpt lon="11.157782971858978" lat="49.43053102120757">
                <ele>323.62</ele>
                <time>2011-02-05T14:32:35.000Z</time>
                <name>Position 154</name>
            </trkpt>
            <trkpt lon="11.15808698348701" lat="49.43050797097385">
                <ele>323.14</ele>
                <time>2011-02-05T14:32:25.000Z</time>
                <name>Position 155</name>
            </trkpt>
            <trkpt lon="11.158187985420227" lat="49.43053403869271">
                <ele>323.14</ele>
                <time>2011-02-05T14:32:15.000Z</time>
                <name>Position 156</name>
            </trkpt>
            <trkpt lon="11.158261997625232" lat="49.43054996430874">
                <ele>323.14</ele>
                <time>2011-02-05T14:32:05.000Z</time>
                <name>Position 157</name>
            </trkpt>
            <trkpt lon="11.158375991508365" lat="49.43048500455916">
                <ele>323.62</ele>
                <time>2011-02-05T14:31:55.000Z</time>
                <name>Position 158</name>
            </trkpt>
            <trkpt lon="11.158500965684652" lat="49.43042398430407">
                <ele>323.14</ele>
                <time>2011-02-05T14:31:45.000Z</time>
                <name>Position 159</name>
            </trkpt>
            <trkpt lon="11.158600961789489" lat="49.430347038432956">
                <ele>323.62</ele>
                <time>2011-02-05T14:31:35.000Z</time>
                <name>Position 160</name>
            </trkpt>
            <trkpt lon="11.158691989257932" lat="49.43025198765099">
                <ele>325.06</ele>
                <time>2011-02-05T14:31:25.000Z</time>
                <name>Position 161</name>
            </trkpt>
            <trkpt lon="11.158873960375786" lat="49.43016397766769">
                <ele>324.58</ele>
                <time>2011-02-05T14:31:15.000Z</time>
                <name>Position 162</name>
            </trkpt>
            <trkpt lon="11.159027013927698" lat="49.43013799376786">
                <ele>324.58</ele>
                <time>2011-02-05T14:31:05.000Z</time>
                <name>Position 163</name>
            </trkpt>
            <trkpt lon="11.159193981438875" lat="49.430088037624955">
                <ele>324.1</ele>
                <time>2011-02-05T14:30:55.000Z</time>
                <name>Position 164</name>
            </trkpt>
            <trkpt lon="11.159367989748716" lat="49.43007303401828">
                <ele>324.1</ele>
                <time>2011-02-05T14:30:45.000Z</time>
                <name>Position 165</name>
            </trkpt>
            <trkpt lon="11.159578040242195" lat="49.43006498739123">
                <ele>324.58</ele>
                <time>2011-02-05T14:30:35.000Z</time>
                <name>Position 166</name>
            </trkpt>
            <trkpt lon="11.159759005531669" lat="49.43003104068339">
                <ele>324.1</ele>
                <time>2011-02-05T14:30:25.000Z</time>
                <name>Position 167</name>
            </trkpt>
            <trkpt lon="11.159923039376736" lat="49.429981000721455">
                <ele>324.1</ele>
                <time>2011-02-05T14:30:15.000Z</time>
                <name>Position 168</name>
            </trkpt>
            <trkpt lon="11.16006100550294" lat="49.4299319665879">
                <ele>325.06</ele>
                <time>2011-02-05T14:30:05.000Z</time>
                <name>Position 169</name>
            </trkpt>
            <trkpt lon="11.16025697439909" lat="49.42989299073815">
                <ele>325.06</ele>
                <time>2011-02-05T14:29:55.000Z</time>
                <name>Position 170</name>
            </trkpt>
            <trkpt lon="11.16042997688055" lat="49.429855020716786">
                <ele>324.58</ele>
                <time>2011-02-05T14:29:45.000Z</time>
                <name>Position 171</name>
            </trkpt>
            <trkpt lon="11.1606639996171" lat="49.429831970483065">
                <ele>324.58</ele>
                <time>2011-02-05T14:29:35.000Z</time>
                <name>Position 172</name>
            </trkpt>
            <trkpt lon="11.160873966291547" lat="49.429789977148175">
                <ele>324.1</ele>
                <time>2011-02-05T14:29:25.000Z</time>
                <name>Position 173</name>
            </trkpt>
            <trkpt lon="11.160991983488202" lat="49.429721999913454">
                <ele>325.54</ele>
                <time>2011-02-05T14:29:15.000Z</time>
                <name>Position 174</name>
            </trkpt>
            <trkpt lon="11.161185018718243" lat="49.42964899353683">
                <ele>325.06</ele>
                <time>2011-02-05T14:29:05.000Z</time>
                <name>Position 175</name>
            </trkpt>
            <trkpt lon="11.16139498539269" lat="49.42961102351546">
                <ele>324.58</ele>
                <time>2011-02-05T14:28:55.000Z</time>
                <name>Position 176</name>
            </trkpt>
            <trkpt lon="11.161601012572646" lat="49.429572969675064">
                <ele>325.06</ele>
                <time>2011-02-05T14:28:45.000Z</time>
                <name>Position 177</name>
            </trkpt>
            <trkpt lon="11.16180301643908" lat="49.42956198938191">
                <ele>325.06</ele>
                <time>2011-02-05T14:28:35.000Z</time>
                <name>Position 178</name>
            </trkpt>
            <trkpt lon="11.162094958126545" lat="49.42956500686705">
                <ele>325.06</ele>
                <time>2011-02-05T14:28:25.000Z</time>
                <name>Position 179</name>
            </trkpt>
            <trkpt lon="11.162141980603337" lat="49.429572969675064">
                <ele>325.54</ele>
                <time>2011-02-05T14:28:15.000Z</time>
                <name>Position 180</name>
            </trkpt>
            <trkpt lon="11.16221398115158" lat="49.42955796606839">
                <ele>325.54</ele>
                <time>2011-02-05T14:28:05.000Z</time>
                <name>Position 181</name>
            </trkpt>
            <trkpt lon="11.162380026653409" lat="49.4295349996537">
                <ele>325.06</ele>
                <time>2011-02-05T14:27:55.000Z</time>
                <name>Position 182</name>
            </trkpt>
            <trkpt lon="11.16251296363771" lat="49.42949702963233">
                <ele>326.02</ele>
                <time>2011-02-05T14:27:45.000Z</time>
                <name>Position 183</name>
            </trkpt>
            <trkpt lon="11.16262000054121" lat="49.42947800271213">
                <ele>325.54</ele>
                <time>2011-02-05T14:27:35.000Z</time>
                <name>Position 184</name>
            </trkpt>
            <trkpt lon="11.162774981930852" lat="49.429446989670396">
                <ele>325.54</ele>
                <time>2011-02-05T14:27:25.000Z</time>
                <name>Position 185</name>
            </trkpt>
            <trkpt lon="11.162933986634016" lat="49.429382029920816">
                <ele>324.58</ele>
                <time>2011-02-05T14:27:15.000Z</time>
                <name>Position 186</name>
            </trkpt>
            <trkpt lon="11.163287032395601" lat="49.42935596220195">
                <ele>325.06</ele>
                <time>2011-02-05T14:27:05.000Z</time>
                <name>Position 187</name>
            </trkpt>
            <trkpt lon="11.163360960781574" lat="49.42932897247374">
                <ele>325.06</ele>
                <time>2011-02-05T14:26:55.000Z</time>
                <name>Position 188</name>
            </trkpt>
            <trkpt lon="11.163504039868712" lat="49.42929100245237">
                <ele>326.02</ele>
                <time>2011-02-05T14:26:45.000Z</time>
                <name>Position 189</name>
            </trkpt>
            <trkpt lon="11.163636976853013" lat="49.429253032431006">
                <ele>325.54</ele>
                <time>2011-02-05T14:26:35.000Z</time>
                <name>Position 190</name>
            </trkpt>
            <trkpt lon="11.16388600319624" lat="49.42924498580396">
                <ele>325.06</ele>
                <time>2011-02-05T14:26:25.000Z</time>
                <name>Position 191</name>
            </trkpt>
            <trkpt lon="11.164088007062674" lat="49.42919502966106">
                <ele>325.06</ele>
                <time>2011-02-05T14:26:15.000Z</time>
                <name>Position 192</name>
            </trkpt>
            <trkpt lon="11.164247011765838" lat="49.42920299246907">
                <ele>326.02</ele>
                <time>2011-02-05T14:26:05.000Z</time>
                <name>Position 193</name>
            </trkpt>
            <trkpt lon="11.164448009803891" lat="49.42917600274086">
                <ele>325.54</ele>
                <time>2011-02-05T14:25:55.000Z</time>
                <name>Position 194</name>
            </trkpt>
            <trkpt lon="11.164653031155467" lat="49.429229982197285">
                <ele>325.54</ele>
                <time>2011-02-05T14:25:45.000Z</time>
                <name>Position 195</name>
            </trkpt>
            <trkpt lon="11.16481396369636" lat="49.42932100966573">
                <ele>325.06</ele>
                <time>2011-02-05T14:25:35.000Z</time>
                <name>Position 196</name>
            </trkpt>
            <trkpt lon="11.164974980056286" lat="49.42935596220195">
                <ele>325.54</ele>
                <time>2011-02-05T14:25:25.000Z</time>
                <name>Position 197</name>
            </trkpt>
            <trkpt lon="11.165101965889335" lat="49.42934397608042">
                <ele>325.54</ele>
                <time>2011-02-05T14:25:15.000Z</time>
                <name>Position 198</name>
            </trkpt>
            <trkpt lon="11.165259964764118" lat="49.42931396886706">
                <ele>325.54</ele>
                <time>2011-02-05T14:25:05.000Z</time>
                <name>Position 199</name>
            </trkpt>
            <trkpt lon="11.165430033579469" lat="49.429253032431006">
                <ele>325.54</ele>
                <time>2011-02-05T14:24:55.000Z</time>
                <name>Position 200</name>
            </trkpt>
            <trkpt lon="11.165590966120362" lat="49.42919502966106">
                <ele>325.54</ele>
                <time>2011-02-05T14:24:45.000Z</time>
                <name>Position 201</name>
            </trkpt>
            <trkpt lon="11.165768997743726" lat="49.42913400940597">
                <ele>326.02</ele>
                <time>2011-02-05T14:24:35.000Z</time>
                <name>Position 202</name>
            </trkpt>
            <trkpt lon="11.165935965254903" lat="49.42905002273619">
                <ele>326.5</ele>
                <time>2011-02-05T14:24:25.000Z</time>
                <name>Position 203</name>
            </trkpt>
            <trkpt lon="11.16599396802485" lat="49.42897802218795">
                <ele>326.5</ele>
                <time>2011-02-05T14:24:15.000Z</time>
                <name>Position 204</name>
            </trkpt>
            <trkpt lon="11.166069991886616" lat="49.428885988891125">
                <ele>326.02</ele>
                <time>2011-02-05T14:24:05.000Z</time>
                <name>Position 205</name>
            </trkpt>
            <trkpt lon="11.166198989376426" lat="49.4288180116564">
                <ele>326.02</ele>
                <time>2011-02-05T14:23:55.000Z</time>
                <name>Position 206</name>
            </trkpt>
            <trkpt lon="11.166363023221493" lat="49.42876403219998">
                <ele>325.54</ele>
                <time>2011-02-05T14:23:45.000Z</time>
                <name>Position 207</name>
            </trkpt>
            <trkpt lon="11.16646301932633" lat="49.42865800112486">
                <ele>326.02</ele>
                <time>2011-02-05T14:23:35.000Z</time>
                <name>Position 208</name>
            </trkpt>
            <trkpt lon="11.166533008217812" lat="49.42861198447645">
                <ele>326.5</ele>
                <time>2011-02-05T14:23:25.000Z</time>
                <name>Position 209</name>
            </trkpt>
            <trkpt lon="11.166699975728989" lat="49.42856999114156">
                <ele>326.02</ele>
                <time>2011-02-05T14:23:15.000Z</time>
                <name>Position 210</name>
            </trkpt>
            <trkpt lon="11.166870966553688" lat="49.428520034998655">
                <ele>326.5</ele>
                <time>2011-02-05T14:23:05.000Z</time>
                <name>Position 211</name>
            </trkpt>
            <trkpt lon="11.16704204119742" lat="49.4284710008651">
                <ele>325.54</ele>
                <time>2011-02-05T14:22:55.000Z</time>
                <name>Position 212</name>
            </trkpt>
            <trkpt lon="11.167267011478543" lat="49.42842900753021">
                <ele>326.5</ele>
                <time>2011-02-05T14:22:45.000Z</time>
                <name>Position 213</name>
            </trkpt>
            <trkpt lon="11.167416963726282" lat="49.42834099754691">
                <ele>326.02</ele>
                <time>2011-02-05T14:22:35.000Z</time>
                <name>Position 214</name>
            </trkpt>
            <trkpt lon="11.167542021721601" lat="49.428284000605345">
                <ele>326.02</ele>
                <time>2011-02-05T14:22:25.000Z</time>
                <name>Position 215</name>
            </trkpt>
            <trkpt lon="11.167727010324597" lat="49.42823002114892">
                <ele>326.5</ele>
                <time>2011-02-05T14:22:15.000Z</time>
                <name>Position 216</name>
            </trkpt>
            <trkpt lon="11.167902024462819" lat="49.42812700755894">
                <ele>326.5</ele>
                <time>2011-02-05T14:22:05.000Z</time>
                <name>Position 217</name>
            </trkpt>
            <trkpt lon="11.168081983923912" lat="49.4280359800905">
                <ele>326.5</ele>
                <time>2011-02-05T14:21:55.000Z</time>
                <name>Position 218</name>
            </trkpt>
            <trkpt lon="11.16818399168551" lat="49.42797495983541">
                <ele>326.5</ele>
                <time>2011-02-05T14:21:45.000Z</time>
                <name>Position 219</name>
            </trkpt>
            <trkpt lon="11.168302008882165" lat="49.42790203727782">
                <ele>326.5</ele>
                <time>2011-02-05T14:21:35.000Z</time>
                <name>Position 220</name>
            </trkpt>
            <trkpt lon="11.168497977778316" lat="49.42788301035762">
                <ele>326.02</ele>
                <time>2011-02-05T14:21:25.000Z</time>
                <name>Position 221</name>
            </trkpt>
            <trkpt lon="11.1687249597162" lat="49.427856020629406">
                <ele>326.02</ele>
                <time>2011-02-05T14:21:15.000Z</time>
                <name>Position 222</name>
            </trkpt>
            <trkpt lon="11.168939033523202" lat="49.42781796678901">
                <ele>326.02</ele>
                <time>2011-02-05T14:21:05.000Z</time>
                <name>Position 223</name>
            </trkpt>
            <trkpt lon="11.169101977720857" lat="49.42781402729452">
                <ele>325.54</ele>
                <time>2011-02-05T14:20:55.000Z</time>
                <name>Position 224</name>
            </trkpt>
            <trkpt lon="11.169221000745893" lat="49.42778402008116">
                <ele>326.02</ele>
                <time>2011-02-05T14:20:45.000Z</time>
                <name>Position 225</name>
            </trkpt>
            <trkpt lon="11.169309010729194" lat="49.42773398011923">
                <ele>326.5</ele>
                <time>2011-02-05T14:20:35.000Z</time>
                <name>Position 226</name>
            </trkpt>
            <trkpt lon="11.169487964361906" lat="49.42765401676297">
                <ele>326.02</ele>
                <time>2011-02-05T14:20:25.000Z</time>
                <name>Position 227</name>
            </trkpt>
            <trkpt lon="11.169564994052052" lat="49.42759299650788">
                <ele>325.54</ele>
                <time>2011-02-05T14:20:15.000Z</time>
                <name>Position 228</name>
            </trkpt>
            <trkpt lon="11.169656021520495" lat="49.42751303315163">
                <ele>326.02</ele>
                <time>2011-02-05T14:20:05.000Z</time>
                <name>Position 229</name>
            </trkpt>
            <trkpt lon="11.169799016788602" lat="49.42745603621006">
                <ele>325.54</ele>
                <time>2011-02-05T14:19:55.000Z</time>
                <name>Position 230</name>
            </trkpt>
            <trkpt lon="11.170000014826655" lat="49.42739501595497">
                <ele>326.5</ele>
                <time>2011-02-05T14:19:45.000Z</time>
                <name>Position 231</name>
            </trkpt>
            <trkpt lon="11.170196989551187" lat="49.42731496877968">
                <ele>326.5</ele>
                <time>2011-02-05T14:19:35.000Z</time>
                <name>Position 232</name>
            </trkpt>
            <trkpt lon="11.17037502117455" lat="49.42721899598837">
                <ele>326.5</ele>
                <time>2011-02-05T14:19:25.000Z</time>
                <name>Position 233</name>
            </trkpt>
            <trkpt lon="11.170629998669028" lat="49.427169961854815">
                <ele>327.47</ele>
                <time>2011-02-05T14:19:15.000Z</time>
                <name>Position 234</name>
            </trkpt>
            <trkpt lon="11.170704010874033" lat="49.42711296491325">
                <ele>327.95</ele>
                <time>2011-02-05T14:19:05.000Z</time>
                <name>Position 235</name>
            </trkpt>
            <trkpt lon="11.170823033899069" lat="49.42707097157836">
                <ele>326.99</ele>
                <time>2011-02-05T14:18:55.000Z</time>
                <name>Position 236</name>
            </trkpt>
            <trkpt lon="11.17091003805399" lat="49.42704398185015">
                <ele>326.5</ele>
                <time>2011-02-05T14:18:45.000Z</time>
                <name>Position 237</name>
            </trkpt>
            <trkpt lon="11.171051021665335" lat="49.42700198851526">
                <ele>326.5</ele>
                <time>2011-02-05T14:18:35.000Z</time>
                <name>Position 238</name>
            </trkpt>
            <trkpt lon="11.171259982511401" lat="49.426994025707245">
                <ele>326.5</ele>
                <time>2011-02-05T14:18:25.000Z</time>
                <name>Position 239</name>
            </trkpt>
            <trkpt lon="11.17151202633977" lat="49.42693702876568">
                <ele>327.47</ele>
                <time>2011-02-05T14:18:15.000Z</time>
                <name>Position 240</name>
            </trkpt>
            <trkpt lon="11.171603975817561" lat="49.42685698159039">
                <ele>326.99</ele>
                <time>2011-02-05T14:18:05.000Z</time>
                <name>Position 241</name>
            </trkpt>
            <trkpt lon="11.171741019934416" lat="49.426781041547656">
                <ele>327.47</ele>
                <time>2011-02-05T14:17:55.000Z</time>
                <name>Position 242</name>
            </trkpt>
            <trkpt lon="11.17188099771738" lat="49.42672002129257">
                <ele>326.99</ele>
                <time>2011-02-05T14:17:45.000Z</time>
                <name>Position 243</name>
            </trkpt>
            <trkpt lon="11.172015024349093" lat="49.426651038229465">
                <ele>327.47</ele>
                <time>2011-02-05T14:17:35.000Z</time>
                <name>Position 244</name>
            </trkpt>
            <trkpt lon="11.17211502045393" lat="49.4265940412879">
                <ele>327.95</ele>
                <time>2011-02-05T14:17:25.000Z</time>
                <name>Position 245</name>
            </trkpt>
            <trkpt lon="11.172268996015191" lat="49.42649496719241">
                <ele>327.47</ele>
                <time>2011-02-05T14:17:15.000Z</time>
                <name>Position 246</name>
            </trkpt>
            <trkpt lon="11.172449961304665" lat="49.42642196081579">
                <ele>327.47</ele>
                <time>2011-02-05T14:17:05.000Z</time>
                <name>Position 247</name>
            </trkpt>
            <trkpt lon="11.17261198349297" lat="49.426349960267544">
                <ele>327.95</ele>
                <time>2011-02-05T14:16:55.000Z</time>
                <name>Position 248</name>
            </trkpt>
            <trkpt lon="11.1727399751544" lat="49.42623898386955">
                <ele>327.95</ele>
                <time>2011-02-05T14:16:45.000Z</time>
                <name>Position 249</name>
            </trkpt>
            <trkpt lon="11.172817004844546" lat="49.4261209666729">
                <ele>327.95</ele>
                <time>2011-02-05T14:16:35.000Z</time>
                <name>Position 250</name>
            </trkpt>
            <trkpt lon="11.172854974865913" lat="49.425987023860216">
                <ele>327.47</ele>
                <time>2011-02-05T14:16:25.000Z</time>
                <name>Position 251</name>
            </trkpt>
            <trkpt lon="11.1728660389781" lat="49.425900019705296">
                <ele>326.99</ele>
                <time>2011-02-05T14:16:15.000Z</time>
                <name>Position 252</name>
            </trkpt>
            <trkpt lon="11.172919012606144" lat="49.42582701332867">
                <ele>326.5</ele>
                <time>2011-02-05T14:16:05.000Z</time>
                <name>Position 253</name>
            </trkpt>
            <trkpt lon="11.173021020367742" lat="49.42567102611065">
                <ele>328.43</ele>
                <time>2011-02-05T14:15:55.000Z</time>
                <name>Position 254</name>
            </trkpt>
            <trkpt lon="11.173055972903967" lat="49.42561696283519">
                <ele>326.99</ele>
                <time>2011-02-05T14:15:45.000Z</time>
                <name>Position 255</name>
            </trkpt>
            <trkpt lon="11.173157980665565" lat="49.425510009750724">
                <ele>326.5</ele>
                <time>2011-02-05T14:15:35.000Z</time>
                <name>Position 256</name>
            </trkpt>
            <trkpt lon="11.173223024234176" lat="49.425403978675604">
                <ele>326.99</ele>
                <time>2011-02-05T14:15:25.000Z</time>
                <name>Position 257</name>
            </trkpt>
            <trkpt lon="11.173311034217477" lat="49.425342958420515">
                <ele>326.99</ele>
                <time>2011-02-05T14:15:15.000Z</time>
                <name>Position 258</name>
            </trkpt>
            <trkpt lon="11.173483030870557" lat="49.42528897896409">
                <ele>326.99</ele>
                <time>2011-02-05T14:15:05.000Z</time>
                <name>Position 259</name>
            </trkpt>
            <trkpt lon="11.173666007816792" lat="49.425255032256246">
                <ele>327.47</ele>
                <time>2011-02-05T14:14:55.000Z</time>
                <name>Position 260</name>
            </trkpt>
            <trkpt lon="11.173801962286234" lat="49.425231982022524">
                <ele>327.47</ele>
                <time>2011-02-05T14:14:45.000Z</time>
                <name>Position 261</name>
            </trkpt>
            <trkpt lon="11.173944035544991" lat="49.42515201866627">
                <ele>327.47</ele>
                <time>2011-02-05T14:14:35.000Z</time>
                <name>Position 262</name>
            </trkpt>
            <trkpt lon="11.174099016934633" lat="49.425086975097656">
                <ele>326.99</ele>
                <time>2011-02-05T14:14:25.000Z</time>
                <name>Position 263</name>
            </trkpt>
            <trkpt lon="11.174207981675863" lat="49.425017992034554">
                <ele>327.47</ele>
                <time>2011-02-05T14:14:15.000Z</time>
                <name>Position 264</name>
            </trkpt>
            <trkpt lon="11.174379978328943" lat="49.42494599148631">
                <ele>327.95</ele>
                <time>2011-02-05T14:14:05.000Z</time>
                <name>Position 265</name>
            </trkpt>
            <trkpt lon="11.174577036872506" lat="49.424911038950086">
                <ele>327.95</ele>
                <time>2011-02-05T14:13:55.000Z</time>
                <name>Position 266</name>
            </trkpt>
            <trkpt lon="11.174679966643453" lat="49.42484297789633">
                <ele>327.95</ele>
                <time>2011-02-05T14:13:45.000Z</time>
                <name>Position 267</name>
            </trkpt>
            <trkpt lon="11.174908960238099" lat="49.42479696124792">
                <ele>328.43</ele>
                <time>2011-02-05T14:13:35.000Z</time>
                <name>Position 268</name>
            </trkpt>
            <trkpt lon="11.175086991861463" lat="49.424716997891665">
                <ele>329.39</ele>
                <time>2011-02-05T14:13:25.000Z</time>
                <name>Position 269</name>
            </trkpt>
            <trkpt lon="11.175229987129569" lat="49.42466402426362">
                <ele>329.39</ele>
                <time>2011-02-05T14:13:15.000Z</time>
                <name>Position 270</name>
            </trkpt>
            <trkpt lon="11.17542402818799" lat="49.424613984301686">
                <ele>326.99</ele>
                <time>2011-02-05T14:13:05.000Z</time>
                <name>Position 271</name>
            </trkpt>
            <trkpt lon="11.175555037334561" lat="49.424567967653275">
                <ele>327.47</ele>
                <time>2011-02-05T14:12:55.000Z</time>
                <name>Position 272</name>
            </trkpt>
            <trkpt lon="11.175686968490481" lat="49.42453796043992">
                <ele>327.47</ele>
                <time>2011-02-05T14:12:45.000Z</time>
                <name>Position 273</name>
            </trkpt>
            <trkpt lon="11.175823006778955" lat="49.42451097071171">
                <ele>327.95</ele>
                <time>2011-02-05T14:12:35.000Z</time>
                <name>Position 274</name>
            </trkpt>
            <trkpt lon="11.176000032573938" lat="49.424483980983496">
                <ele>327.95</ele>
                <time>2011-02-05T14:12:25.000Z</time>
                <name>Position 275</name>
            </trkpt>
            <trkpt lon="11.176271019503474" lat="49.42446897737682">
                <ele>327.47</ele>
                <time>2011-02-05T14:12:15.000Z</time>
                <name>Position 276</name>
            </trkpt>
            <trkpt lon="11.176442010328174" lat="49.424461014568806">
                <ele>327.95</ele>
                <time>2011-02-05T14:12:05.000Z</time>
                <name>Position 277</name>
            </trkpt>
            <trkpt lon="11.176581988111138" lat="49.424441987648606">
                <ele>328.43</ele>
                <time>2011-02-05T14:11:55.000Z</time>
                <name>Position 278</name>
            </trkpt>
            <trkpt lon="11.17677703499794" lat="49.42443100735545">
                <ele>327.95</ele>
                <time>2011-02-05T14:11:45.000Z</time>
                <name>Position 279</name>
            </trkpt>
            <trkpt lon="11.177088003605604" lat="49.42440401762724">
                <ele>327.95</ele>
                <time>2011-02-05T14:11:35.000Z</time>
                <name>Position 280</name>
            </trkpt>
            <trkpt lon="11.177326971665025" lat="49.42437702789903">
                <ele>327.95</ele>
                <time>2011-02-05T14:11:25.000Z</time>
                <name>Position 281</name>
            </trkpt>
            <trkpt lon="11.177546996623278" lat="49.42433503456414">
                <ele>327.95</ele>
                <time>2011-02-05T14:11:15.000Z</time>
                <name>Position 282</name>
            </trkpt>
            <trkpt lon="11.177674988284707" lat="49.424312990158796">
                <ele>328.43</ele>
                <time>2011-02-05T14:11:05.000Z</time>
                <name>Position 283</name>
            </trkpt>
            <trkpt lon="11.17783097550273" lat="49.42425498738885">
                <ele>328.43</ele>
                <time>2011-02-05T14:10:55.000Z</time>
                <name>Position 284</name>
            </trkpt>
            <trkpt lon="11.177843967452645" lat="49.42425498738885">
                <ele>328.91</ele>
                <time>2011-02-05T14:10:45.000Z</time>
                <name>Position 285</name>
            </trkpt>
            <trkpt lon="11.177992997691035" lat="49.424224980175495">
                <ele>328.91</ele>
                <time>2011-02-05T14:10:35.000Z</time>
                <name>Position 286</name>
            </trkpt>
            <trkpt lon="11.178178992122412" lat="49.42417896352708">
                <ele>328.43</ele>
                <time>2011-02-05T14:10:25.000Z</time>
                <name>Position 287</name>
            </trkpt>
            <trkpt lon="11.178327016532421" lat="49.424182986840606">
                <ele>327.95</ele>
                <time>2011-02-05T14:10:15.000Z</time>
                <name>Position 288</name>
            </trkpt>
            <trkpt lon="11.178558021783829" lat="49.424224980175495">
                <ele>328.43</ele>
                <time>2011-02-05T14:10:05.000Z</time>
                <name>Position 289</name>
            </trkpt>
            <trkpt lon="11.17875499650836" lat="49.42425901070237">
                <ele>328.43</ele>
                <time>2011-02-05T14:09:55.000Z</time>
                <name>Position 290</name>
            </trkpt>
            <trkpt lon="11.17886396124959" lat="49.424266973510385">
                <ele>328.43</ele>
                <time>2011-02-05T14:09:45.000Z</time>
                <name>Position 291</name>
            </trkpt>
            <trkpt lon="11.178998993709683" lat="49.42427099682391">
                <ele>328.43</ele>
                <time>2011-02-05T14:09:35.000Z</time>
                <name>Position 292</name>
            </trkpt>
            <trkpt lon="11.179195968434215" lat="49.424263034015894">
                <ele>327.47</ele>
                <time>2011-02-05T14:09:25.000Z</time>
                <name>Position 293</name>
            </trkpt>
            <trkpt lon="11.179349021986127" lat="49.42421299405396">
                <ele>326.99</ele>
                <time>2011-02-05T14:09:15.000Z</time>
                <name>Position 294</name>
            </trkpt>
            <trkpt lon="11.179536022245884" lat="49.424202013760805">
                <ele>327.47</ele>
                <time>2011-02-05T14:09:05.000Z</time>
                <name>Position 295</name>
            </trkpt>
            <trkpt lon="11.179645992815495" lat="49.42417896352708">
                <ele>327.47</ele>
                <time>2011-02-05T14:08:55.000Z</time>
                <name>Position 296</name>
            </trkpt>
            <trkpt lon="11.179835004732013" lat="49.42414501681924">
                <ele>327.47</ele>
                <time>2011-02-05T14:08:45.000Z</time>
                <name>Position 297</name>
            </trkpt>
            <trkpt lon="11.179970959201455" lat="49.424118027091026">
                <ele>326.99</ele>
                <time>2011-02-05T14:08:35.000Z</time>
                <name>Position 298</name>
            </trkpt>
            <trkpt lon="11.180139016360044" lat="49.42407997325063">
                <ele>327.95</ele>
                <time>2011-02-05T14:08:25.000Z</time>
                <name>Position 299</name>
            </trkpt>
            <trkpt lon="11.180297015234828" lat="49.42404602654278">
                <ele>328.43</ele>
                <time>2011-02-05T14:08:15.000Z</time>
                <name>Position 300</name>
            </trkpt>
            <trkpt lon="11.180447973310947" lat="49.42402297630906">
                <ele>329.39</ele>
                <time>2011-02-05T14:08:05.000Z</time>
                <name>Position 301</name>
            </trkpt>
            <trkpt lon="11.180618964135647" lat="49.42400403320789">
                <ele>329.87</ele>
                <time>2011-02-05T14:07:55.000Z</time>
                <name>Position 302</name>
            </trkpt>
            <trkpt lon="11.180802024900913" lat="49.42397302016616">
                <ele>329.87</ele>
                <time>2011-02-05T14:07:45.000Z</time>
                <name>Position 303</name>
            </trkpt>
            <trkpt lon="11.18096798658371" lat="49.42393102683127">
                <ele>329.39</ele>
                <time>2011-02-05T14:07:35.000Z</time>
                <name>Position 304</name>
            </trkpt>
            <trkpt lon="11.181143000721931" lat="49.42387796938419">
                <ele>329.87</ele>
                <time>2011-02-05T14:07:25.000Z</time>
                <name>Position 305</name>
            </trkpt>
            <trkpt lon="11.181263029575348" lat="49.4237860199064">
                <ele>329.39</ele>
                <time>2011-02-05T14:07:15.000Z</time>
                <name>Position 306</name>
            </trkpt>
            <trkpt lon="11.181373000144958" lat="49.42368300631642">
                <ele>329.39</ele>
                <time>2011-02-05T14:07:05.000Z</time>
                <name>Position 307</name>
            </trkpt>
            <trkpt lon="11.181434020400047" lat="49.42358401603997">
                <ele>329.39</ele>
                <time>2011-02-05T14:06:55.000Z</time>
                <name>Position 308</name>
            </trkpt>
            <trkpt lon="11.181514989584684" lat="49.423473039641976">
                <ele>329.87</ele>
                <time>2011-02-05T14:06:45.000Z</time>
                <name>Position 309</name>
            </trkpt>
            <trkpt lon="11.181552959606051" lat="49.423367008566856">
                <ele>329.87</ele>
                <time>2011-02-05T14:06:35.000Z</time>
                <name>Position 310</name>
            </trkpt>
            <trkpt lon="11.181626971811056" lat="49.42326701246202">
                <ele>329.87</ele>
                <time>2011-02-05T14:06:25.000Z</time>
                <name>Position 311</name>
            </trkpt>
            <trkpt lon="11.181717999279499" lat="49.4231609813869">
                <ele>329.39</ele>
                <time>2011-02-05T14:06:15.000Z</time>
                <name>Position 312</name>
            </trkpt>
            <trkpt lon="11.18184900842607" lat="49.42306098528206">
                <ele>328.91</ele>
                <time>2011-02-05T14:06:05.000Z</time>
                <name>Position 313</name>
            </trkpt>
            <trkpt lon="11.181974988430738" lat="49.42299300804734">
                <ele>329.39</ele>
                <time>2011-02-05T14:05:55.000Z</time>
                <name>Position 314</name>
            </trkpt>
            <trkpt lon="11.182158971205354" lat="49.42292000167072">
                <ele>329.87</ele>
                <time>2011-02-05T14:05:45.000Z</time>
                <name>Position 315</name>
            </trkpt>
            <trkpt lon="11.182313030585647" lat="49.422870967537165">
                <ele>329.87</ele>
                <time>2011-02-05T14:05:35.000Z</time>
                <name>Position 316</name>
            </trkpt>
            <trkpt lon="11.182473041117191" lat="49.422825034707785">
                <ele>329.39</ele>
                <time>2011-02-05T14:05:25.000Z</time>
                <name>Position 317</name>
            </trkpt>
            <trkpt lon="11.182698011398315" lat="49.422786980867386">
                <ele>330.35</ele>
                <time>2011-02-05T14:05:15.000Z</time>
                <name>Position 318</name>
            </trkpt>
            <trkpt lon="11.18285802192986" lat="49.42274901084602">
                <ele>329.87</ele>
                <time>2011-02-05T14:05:05.000Z</time>
                <name>Position 319</name>
            </trkpt>
            <trkpt lon="11.183020966127515" lat="49.42270701751113">
                <ele>329.87</ele>
                <time>2011-02-05T14:04:55.000Z</time>
                <name>Position 320</name>
            </trkpt>
            <trkpt lon="11.183237973600626" lat="49.42267198115587">
                <ele>329.87</ele>
                <time>2011-02-05T14:04:45.000Z</time>
                <name>Position 321</name>
            </trkpt>
            <trkpt lon="11.183390021324158" lat="49.42266100086272">
                <ele>329.39</ele>
                <time>2011-02-05T14:04:35.000Z</time>
                <name>Position 322</name>
            </trkpt>
            <trkpt lon="11.18350200355053" lat="49.42263803444803">
                <ele>328.91</ele>
                <time>2011-02-05T14:04:25.000Z</time>
                <name>Position 323</name>
            </trkpt>
            <trkpt lon="11.183668971061707" lat="49.42261900752783">
                <ele>330.83</ele>
                <time>2011-02-05T14:04:15.000Z</time>
                <name>Position 324</name>
            </trkpt>
            <trkpt lon="11.183828981593251" lat="49.42258799448609">
                <ele>330.35</ele>
                <time>2011-02-05T14:04:05.000Z</time>
                <name>Position 325</name>
            </trkpt>
            <trkpt lon="11.184000978246331" lat="49.42255002446473">
                <ele>330.35</ele>
                <time>2011-02-05T14:03:55.000Z</time>
                <name>Position 326</name>
            </trkpt>
            <trkpt lon="11.184161994606256" lat="49.42251599393785">
                <ele>330.35</ele>
                <time>2011-02-05T14:03:45.000Z</time>
                <name>Position 327</name>
            </trkpt>
            <trkpt lon="11.18431898765266" lat="49.42248196341097">
                <ele>330.35</ele>
                <time>2011-02-05T14:03:35.000Z</time>
                <name>Position 328</name>
            </trkpt>
            <trkpt lon="11.184539012610912" lat="49.42240501753986">
                <ele>330.83</ele>
                <time>2011-02-05T14:03:25.000Z</time>
                <name>Position 329</name>
            </trkpt>
            <trkpt lon="11.184634985402226" lat="49.42232497036457">
                <ele>330.83</ele>
                <time>2011-02-05T14:03:15.000Z</time>
                <name>Position 330</name>
            </trkpt>
            <trkpt lon="11.184788038954139" lat="49.42223696038127">
                <ele>330.83</ele>
                <time>2011-02-05T14:03:05.000Z</time>
                <name>Position 331</name>
            </trkpt>
            <trkpt lon="11.18494100868702" lat="49.42217300646007">
                <ele>331.31</ele>
                <time>2011-02-05T14:02:55.000Z</time>
                <name>Position 332</name>
            </trkpt>
            <trkpt lon="11.185129014775157" lat="49.42213403061032">
                <ele>331.31</ele>
                <time>2011-02-05T14:02:45.000Z</time>
                <name>Position 333</name>
            </trkpt>
            <trkpt lon="11.185297993943095" lat="49.42213101312518">
                <ele>330.83</ele>
                <time>2011-02-05T14:02:35.000Z</time>
                <name>Position 334</name>
            </trkpt>
            <trkpt lon="11.185448030009866" lat="49.422141993418336">
                <ele>330.35</ele>
                <time>2011-02-05T14:02:25.000Z</time>
                <name>Position 335</name>
            </trkpt>
            <trkpt lon="11.185602005571127" lat="49.42215699702501">
                <ele>331.79</ele>
                <time>2011-02-05T14:02:15.000Z</time>
                <name>Position 336</name>
            </trkpt>
            <trkpt lon="11.185766961425543" lat="49.42212296649814">
                <ele>332.27</ele>
                <time>2011-02-05T14:02:05.000Z</time>
                <name>Position 337</name>
            </trkpt>
            <trkpt lon="11.185863018035889" lat="49.42206203006208">
                <ele>331.79</ele>
                <time>2011-02-05T14:01:55.000Z</time>
                <name>Position 338</name>
            </trkpt>
            <trkpt lon="11.18595002219081" lat="49.421966979280114">
                <ele>332.27</ele>
                <time>2011-02-05T14:01:45.000Z</time>
                <name>Position 339</name>
            </trkpt>
            <trkpt lon="11.186163006350398" lat="49.42187502980232">
                <ele>330.83</ele>
                <time>2011-02-05T14:01:35.000Z</time>
                <name>Position 340</name>
            </trkpt>
            <trkpt lon="11.186313964426517" lat="49.42178701981902">
                <ele>331.31</ele>
                <time>2011-02-05T14:01:25.000Z</time>
                <name>Position 341</name>
            </trkpt>
            <trkpt lon="11.186477998271585" lat="49.42172197625041">
                <ele>331.79</ele>
                <time>2011-02-05T14:01:15.000Z</time>
                <name>Position 342</name>
            </trkpt>
            <trkpt lon="11.186629040166736" lat="49.421669002622366">
                <ele>332.27</ele>
                <time>2011-02-05T14:01:05.000Z</time>
                <name>Position 343</name>
            </trkpt>
            <trkpt lon="11.186795001849532" lat="49.421631032601">
                <ele>331.79</ele>
                <time>2011-02-05T14:00:55.000Z</time>
                <name>Position 344</name>
            </trkpt>
            <trkpt lon="11.186974961310625" lat="49.4215929787606">
                <ele>331.31</ele>
                <time>2011-02-05T14:00:45.000Z</time>
                <name>Position 345</name>
            </trkpt>
            <trkpt lon="11.18715500459075" lat="49.42154696211219">
                <ele>331.31</ele>
                <time>2011-02-05T14:00:35.000Z</time>
                <name>Position 346</name>
            </trkpt>
            <trkpt lon="11.187334964051843" lat="49.42150102928281">
                <ele>331.79</ele>
                <time>2011-02-05T14:00:25.000Z</time>
                <name>Position 347</name>
            </trkpt>
            <trkpt lon="11.187506038695574" lat="49.421471022069454">
                <ele>332.75</ele>
                <time>2011-02-05T14:00:15.000Z</time>
                <name>Position 348</name>
            </trkpt>
            <trkpt lon="11.187678035348654" lat="49.42144403234124">
                <ele>331.31</ele>
                <time>2011-02-05T14:00:05.000Z</time>
                <name>Position 349</name>
            </trkpt>
            <trkpt lon="11.187840979546309" lat="49.42144000902772">
                <ele>331.79</ele>
                <time>2011-02-05T13:59:55.000Z</time>
                <name>Position 350</name>
            </trkpt>
            <trkpt lon="11.188024040311575" lat="49.421451995149255">
                <ele>332.27</ele>
                <time>2011-02-05T13:59:45.000Z</time>
                <name>Position 351</name>
            </trkpt>
            <trkpt lon="11.188190001994371" lat="49.421429028734565">
                <ele>333.23</ele>
                <time>2011-02-05T13:59:35.000Z</time>
                <name>Position 352</name>
            </trkpt>
            <trkpt lon="11.188357975333929" lat="49.42140203900635">
                <ele>332.75</ele>
                <time>2011-02-05T13:59:25.000Z</time>
                <name>Position 353</name>
            </trkpt>
            <trkpt lon="11.188541958108544" lat="49.42135199904442">
                <ele>333.23</ele>
                <time>2011-02-05T13:59:15.000Z</time>
                <name>Position 354</name>
            </trkpt>
            <trkpt lon="11.188719989731908" lat="49.4212840218097">
                <ele>331.31</ele>
                <time>2011-02-05T13:59:05.000Z</time>
                <name>Position 355</name>
            </trkpt>
            <trkpt lon="11.18885301053524" lat="49.42122995853424">
                <ele>333.71</ele>
                <time>2011-02-05T13:58:55.000Z</time>
                <name>Position 356</name>
            </trkpt>
            <trkpt lon="11.188988965004683" lat="49.421191988512874">
                <ele>333.71</ele>
                <time>2011-02-05T13:58:45.000Z</time>
                <name>Position 357</name>
            </trkpt>
            <trkpt lon="11.189141012728214" lat="49.42115804180503">
                <ele>334.2</ele>
                <time>2011-02-05T13:58:35.000Z</time>
                <name>Position 358</name>
            </trkpt>
            <trkpt lon="11.189298005774617" lat="49.421127028763294">
                <ele>333.71</ele>
                <time>2011-02-05T13:58:25.000Z</time>
                <name>Position 359</name>
            </trkpt>
            <trkpt lon="11.18947695940733" lat="49.42113901488483">
                <ele>333.71</ele>
                <time>2011-02-05T13:58:15.000Z</time>
                <name>Position 360</name>
            </trkpt>
            <trkpt lon="11.189649039879441" lat="49.42114303819835">
                <ele>333.71</ele>
                <time>2011-02-05T13:58:05.000Z</time>
                <name>Position 361</name>
            </trkpt>
            <trkpt lon="11.189817013218999" lat="49.42115401849151">
                <ele>334.2</ele>
                <time>2011-02-05T13:57:55.000Z</time>
                <name>Position 362</name>
            </trkpt>
            <trkpt lon="11.18999202735722" lat="49.42116499878466">
                <ele>335.16</ele>
                <time>2011-02-05T13:57:45.000Z</time>
                <name>Position 363</name>
            </trkpt>
            <trkpt lon="11.19020501151681" lat="49.421169022098184">
                <ele>334.68</ele>
                <time>2011-02-05T13:57:35.000Z</time>
                <name>Position 364</name>
            </trkpt>
            <trkpt lon="11.190383965149522" lat="49.42116499878466">
                <ele>334.2</ele>
                <time>2011-02-05T13:57:25.000Z</time>
                <name>Position 365</name>
            </trkpt>
            <trkpt lon="11.190466023981571" lat="49.42116499878466">
                <ele>334.2</ele>
                <time>2011-02-05T13:57:15.000Z</time>
                <name>Position 366</name>
            </trkpt>
            <trkpt lon="11.19059300981462" lat="49.42116198129952">
                <ele>334.2</ele>
                <time>2011-02-05T13:57:05.000Z</time>
                <name>Position 367</name>
            </trkpt>
            <trkpt lon="11.190767018124461" lat="49.42118100821972">
                <ele>334.68</ele>
                <time>2011-02-05T13:56:55.000Z</time>
                <name>Position 368</name>
            </trkpt>
            <trkpt lon="11.190939014777541" lat="49.421218978241086">
                <ele>335.16</ele>
                <time>2011-02-05T13:56:45.000Z</time>
                <name>Position 369</name>
            </trkpt>
            <trkpt lon="11.19117303751409" lat="49.42129097878933">
                <ele>333.71</ele>
                <time>2011-02-05T13:56:35.000Z</time>
                <name>Position 370</name>
            </trkpt>
            <trkpt lon="11.191346039995551" lat="49.42134898155928">
                <ele>334.68</ele>
                <time>2011-02-05T13:56:25.000Z</time>
                <name>Position 371</name>
            </trkpt>
            <trkpt lon="11.191524993628263" lat="49.42140203900635">
                <ele>335.64</ele>
                <time>2011-02-05T13:56:15.000Z</time>
                <name>Position 372</name>
            </trkpt>
            <trkpt lon="11.191638987511396" lat="49.4214359857142">
                <ele>334.68</ele>
                <time>2011-02-05T13:56:05.000Z</time>
                <name>Position 373</name>
            </trkpt>
            <trkpt lon="11.19173496030271" lat="49.42145903594792">
                <ele>333.23</ele>
                <time>2011-02-05T13:55:55.000Z</time>
                <name>Position 374</name>
            </trkpt>
            <trkpt lon="11.191918021067977" lat="49.4215239956975">
                <ele>333.23</ele>
                <time>2011-02-05T13:55:45.000Z</time>
                <name>Position 375</name>
            </trkpt>
            <trkpt lon="11.19209798052907" lat="49.421561965718865">
                <ele>334.2</ele>
                <time>2011-02-05T13:55:35.000Z</time>
                <name>Position 376</name>
            </trkpt>
            <trkpt lon="11.192254973575473" lat="49.42154696211219">
                <ele>333.71</ele>
                <time>2011-02-05T13:55:25.000Z</time>
                <name>Position 377</name>
            </trkpt>
            <trkpt lon="11.192405009642243" lat="49.42150899209082">
                <ele>334.2</ele>
                <time>2011-02-05T13:55:15.000Z</time>
                <name>Position 378</name>
            </trkpt>
            <trkpt lon="11.192550016567111" lat="49.42145903594792">
                <ele>334.68</ele>
                <time>2011-02-05T13:55:05.000Z</time>
                <name>Position 379</name>
            </trkpt>
            <trkpt lon="11.192583963274956" lat="49.42135996185243">
                <ele>333.71</ele>
                <time>2011-02-05T13:54:55.000Z</time>
                <name>Position 380</name>
            </trkpt>
            <trkpt lon="11.192747997120023" lat="49.42127203568816">
                <ele>333.71</ele>
                <time>2011-02-05T13:54:45.000Z</time>
                <name>Position 381</name>
            </trkpt>
            <trkpt lon="11.19280599988997" lat="49.42116499878466">
                <ele>333.71</ele>
                <time>2011-02-05T13:54:35.000Z</time>
                <name>Position 382</name>
            </trkpt>
            <trkpt lon="11.192901972681284" lat="49.42113901488483">
                <ele>333.71</ele>
                <time>2011-02-05T13:54:25.000Z</time>
                <name>Position 383</name>
            </trkpt>
            <trkpt lon="11.193061983212829" lat="49.42118796519935">
                <ele>334.2</ele>
                <time>2011-02-05T13:54:15.000Z</time>
                <name>Position 384</name>
            </trkpt>
            <trkpt lon="11.19321595877409" lat="49.42122702486813">
                <ele>334.2</ele>
                <time>2011-02-05T13:54:05.000Z</time>
                <name>Position 385</name>
            </trkpt>
            <trkpt lon="11.193311009556055" lat="49.42118796519935">
                <ele>335.16</ele>
                <time>2011-02-05T13:53:55.000Z</time>
                <name>Position 386</name>
            </trkpt>
            <trkpt lon="11.193421985954046" lat="49.42102803848684">
                <ele>335.16</ele>
                <time>2011-02-05T13:53:45.000Z</time>
                <name>Position 387</name>
            </trkpt>
            <trkpt lon="11.19349398650229" lat="49.420895017683506">
                <ele>335.16</ele>
                <time>2011-02-05T13:53:35.000Z</time>
                <name>Position 388</name>
            </trkpt>
            <trkpt lon="11.19349398650229" lat="49.420895017683506">
                <ele>335.64</ele>
                <time>2011-02-05T13:53:25.000Z</time>
                <name>Position 389</name>
            </trkpt>
            <trkpt lon="11.19349398650229" lat="49.42083399742842">
                <ele>335.64</ele>
                <time>2011-02-05T13:53:15.000Z</time>
                <name>Position 390</name>
            </trkpt>
            <trkpt lon="11.193464985117316" lat="49.42071204073727">
                <ele>335.64</ele>
                <time>2011-02-05T13:53:05.000Z</time>
                <name>Position 391</name>
            </trkpt>
            <trkpt lon="11.193460961803794" lat="49.420569967478514">
                <ele>336.6</ele>
                <time>2011-02-05T13:52:55.000Z</time>
                <name>Position 392</name>
            </trkpt>
            <trkpt lon="11.193422991782427" lat="49.42043703049421">
                <ele>336.12</ele>
                <time>2011-02-05T13:52:45.000Z</time>
                <name>Position 393</name>
            </trkpt>
            <trkpt lon="11.193520976230502" lat="49.42026101052761">
                <ele>336.12</ele>
                <time>2011-02-05T13:52:35.000Z</time>
                <name>Position 394</name>
            </trkpt>
            <trkpt lon="11.193618960678577" lat="49.420250030234456">
                <ele>336.12</ele>
                <time>2011-02-05T13:52:25.000Z</time>
                <name>Position 395</name>
            </trkpt>
            <trkpt lon="11.193650979548693" lat="49.42021901719272">
                <ele>336.6</ele>
                <time>2011-02-05T13:52:15.000Z</time>
                <name>Position 396</name>
            </trkpt>
            <trkpt lon="11.193742007017136" lat="49.42020803689957">
                <ele>337.08</ele>
                <time>2011-02-05T13:52:05.000Z</time>
                <name>Position 397</name>
            </trkpt>
            <trkpt lon="11.193978041410446" lat="49.42018096335232">
                <ele>337.08</ele>
                <time>2011-02-05T13:51:55.000Z</time>
                <name>Position 398</name>
            </trkpt>
            <trkpt lon="11.194021962583065" lat="49.42009001970291">
                <ele>338.04</ele>
                <time>2011-02-05T13:51:45.000Z</time>
                <name>Position 399</name>
            </trkpt>
            <trkpt lon="11.194132016971707" lat="49.42002899944782">
                <ele>338.04</ele>
                <time>2011-02-05T13:51:35.000Z</time>
                <name>Position 400</name>
            </trkpt>
            <trkpt lon="11.194233018904924" lat="49.419991029426455">
                <ele>338.04</ele>
                <time>2011-02-05T13:51:25.000Z</time>
                <name>Position 401</name>
            </trkpt>
            <trkpt lon="11.19439403526485" lat="49.41992196254432">
                <ele>338.04</ele>
                <time>2011-02-05T13:51:15.000Z</time>
                <name>Position 402</name>
            </trkpt>
            <trkpt lon="11.194558991119266" lat="49.41987200640142">
                <ele>338.52</ele>
                <time>2011-02-05T13:51:05.000Z</time>
                <name>Position 403</name>
            </trkpt>
            <trkpt lon="11.194728976115584" lat="49.41984903998673">
                <ele>339.0</ele>
                <time>2011-02-05T13:50:55.000Z</time>
                <name>Position 404</name>
            </trkpt>
            <trkpt lon="11.1948680318892" lat="49.41979195922613">
                <ele>339.48</ele>
                <time>2011-02-05T13:50:45.000Z</time>
                <name>Position 405</name>
            </trkpt>
            <trkpt lon="11.194938020780683" lat="49.419731022790074">
                <ele>339.0</ele>
                <time>2011-02-05T13:50:35.000Z</time>
                <name>Position 406</name>
            </trkpt>
            <trkpt lon="11.195045979693532" lat="49.41965499892831">
                <ele>339.0</ele>
                <time>2011-02-05T13:50:25.000Z</time>
                <name>Position 407</name>
            </trkpt>
            <trkpt lon="11.195175983011723" lat="49.419559026136994">
                <ele>339.0</ele>
                <time>2011-02-05T13:50:15.000Z</time>
                <name>Position 408</name>
            </trkpt>
            <trkpt lon="11.19525502435863" lat="49.419456012547016">
                <ele>339.0</ele>
                <time>2011-02-05T13:50:05.000Z</time>
                <name>Position 409</name>
            </trkpt>
            <trkpt lon="11.195317972451448" lat="49.41936498507857">
                <ele>339.48</ele>
                <time>2011-02-05T13:49:55.000Z</time>
                <name>Position 410</name>
            </trkpt>
            <trkpt lon="11.195416040718555" lat="49.41929197870195">
                <ele>339.48</ele>
                <time>2011-02-05T13:49:45.000Z</time>
                <name>Position 411</name>
            </trkpt>
            <trkpt lon="11.195496004074812" lat="49.41920103505254">
                <ele>339.96</ele>
                <time>2011-02-05T13:49:35.000Z</time>
                <name>Position 412</name>
            </trkpt>
            <trkpt lon="11.195638999342918" lat="49.41914001479745">
                <ele>339.96</ele>
                <time>2011-02-05T13:49:25.000Z</time>
                <name>Position 413</name>
            </trkpt>
            <trkpt lon="11.195764979347587" lat="49.419089974835515">
                <ele>339.0</ele>
                <time>2011-02-05T13:49:15.000Z</time>
                <name>Position 414</name>
            </trkpt>
            <trkpt lon="11.195907974615693" lat="49.41901797428727">
                <ele>339.48</ele>
                <time>2011-02-05T13:49:05.000Z</time>
                <name>Position 415</name>
            </trkpt>
            <trkpt lon="11.196026997640729" lat="49.418960977345705">
                <ele>339.48</ele>
                <time>2011-02-05T13:48:55.000Z</time>
                <name>Position 416</name>
            </trkpt>
            <trkpt lon="11.196020040661097" lat="49.41885796375573">
                <ele>339.96</ele>
                <time>2011-02-05T13:48:45.000Z</time>
                <name>Position 417</name>
            </trkpt>
            <trkpt lon="11.195991961285472" lat="49.418746987357736">
                <ele>339.96</ele>
                <time>2011-02-05T13:48:35.000Z</time>
                <name>Position 418</name>
            </trkpt>
            <trkpt lon="11.196104027330875" lat="49.41866300068796">
                <ele>339.96</ele>
                <time>2011-02-05T13:48:25.000Z</time>
                <name>Position 419</name>
            </trkpt>
            <trkpt lon="11.19613696821034" lat="49.4185830373317">
                <ele>339.48</ele>
                <time>2011-02-05T13:48:15.000Z</time>
                <name>Position 420</name>
            </trkpt>
            <trkpt lon="11.19615901261568" lat="49.418510030955076">
                <ele>339.96</ele>
                <time>2011-02-05T13:48:05.000Z</time>
                <name>Position 421</name>
            </trkpt>
            <trkpt lon="11.196230007335544" lat="49.4184760004282">
                <ele>339.96</ele>
                <time>2011-02-05T13:47:55.000Z</time>
                <name>Position 422</name>
            </trkpt>
            <trkpt lon="11.196274012327194" lat="49.41844196990132">
                <ele>339.96</ele>
                <time>2011-02-05T13:47:45.000Z</time>
                <name>Position 423</name>
            </trkpt>
            <trkpt lon="11.196274012327194" lat="49.41844196990132">
                <ele>339.48</ele>
                <time>2011-02-05T13:47:35.000Z</time>
                <name>Position 424</name>
            </trkpt>
            <trkpt lon="11.196274012327194" lat="49.41844196990132">
                <ele>339.96</ele>
                <time>2011-02-05T13:47:25.000Z</time>
                <name>Position 425</name>
            </trkpt>
            <trkpt lon="11.196279963478446" lat="49.41844196990132">
                <ele>338.04</ele>
                <time>2011-02-05T13:47:15.000Z</time>
                <name>Position 426</name>
            </trkpt>
            <trkpt lon="11.19635397568345" lat="49.41843400709331">
                <ele>336.12</ele>
                <time>2011-02-05T13:47:05.000Z</time>
                <name>Position 427</name>
            </trkpt>
            <trkpt lon="11.196397980675101" lat="49.41845303401351">
                <ele>334.2</ele>
                <time>2011-02-05T13:46:55.000Z</time>
                <name>Position 428</name>
            </trkpt>
        </trkseg>
    </trk>
</gpx>
